Main page
METAR-TAF:

METAR-TAF

Airports :

Kuwait International Airport

Kuwait City, Kuwait

latitude: 29-13N, longitude: 047-59E, elevation: 55 m

Current weather observation

The report was made 1 hour and 3 minutes ago, at 02:00 UTC
Wind 3 kt from the West
Temperature 12°C
Humidity 40%
Pressure 1016 hPa
Visibility 10 km or more
no clouds below 1500 m and no cumulonimbus

METAR: OKBK 230200Z 26003KT CAVOK 12/M01 Q1016 NOSIG

Time: 06:03 (03:03 UTC)

Forecast

The report was made 4 hours and 18 minutes ago, at 22:45 UTC
Forecast valid from 23 at 00 UTC to 24 at 06 UTC
Wind 12 kt from the North/Northwest
Visibility: 7000 m
Clear sky

TAF: OKBK 222245Z 2300/2406 34012KT 7000 SKC

Weather observations and forecasts of more than 4000 airports (METAR and TAF reports).

The available stations are represented by yellow and red dots on the map.

Hover mouse over dot to see the name of the station.

Then click to see weather observations and forecasts.

To change the map : click on the green buttons with a black cross to zoom in, on the green button with a dash to zoom out, or on the green arrows for adjacent maps.


METAR-TAF: